Μυτιλήνη, Ελλάδα

06:39 AM EEST on Ιούλιος 27, 2016 (GMT +0300)
Odysseas Elytis | | Change Station

Elev 16 ft 39.05 °N, 26.60 °E | Updated 19 minutes ago

Clear
Αίθριος
75 ° F
Feels Like 75 ° F
N
10
Ανεμος Μεταβλητός Ανεμος from ΒΔ

Σήμερα
High -- | Low -- ° F
--% Chance of Precip.
Yesterday
High -- | Low -- ° F
Precip. -- in
Ατμοσφαιρική Πίεση 29.80 in
Ορατότητα -9999.0 Μίλια
Σύννεφα
Σημείο Δρόσου 64 ° F
Υγρασία 69%
Rainfall 0.00 in
Snow Depth Not available.
6:09 AM 8:29 PM
Αμφίκυρτος, 48% visible
METAR LGMT 270320Z 32009KT 290V040 CAVOK 24/18 Q1009
Ατμοσφαιρική Πίεση 29.80 in
Ορατότητα -9999.0 Μίλια
Σύννεφα
Σημείο Δρόσου 64 ° F
Υγρασία 69%
Rainfall 0.00 in
Snow Depth Not available.
6:09 AM 8:29 PM
Αμφίκυρτος, 48% visible
METAR LGMT 270320Z 32009KT 290V040 CAVOK 24/18 Q1009

10-Day Weather Forecast

×

Almanac

Αστρονομία

Jul. 27, 2016 Rise Set
Actual Time
Civil Twilight
Nautical Twilight
Astronomical Twilight
Moon
Length Of Visible Light
Διάρκεια ημέρας
Tomorrow will be .
, % of the Moon is Illuminated

Today's Extremes

Country Highs Country Lows

Community

WunderPhotos

Upload Photos

1,927,800 photos uploaded!

WunderBlog® & News

Nearby

Air Quality

  Air Quality AQ Index Pollutant
Not available.

Snow Depth

Station Depth Elevation

Earthquake Activity

City Distance Mag. Time & Date
Minimum magnitude displayed is 2.5.

Coastal Water Temperatures

Τοποθεσία Θερμοκρασία

Stations

Nearby Weather Stations

Station Location Temp Δείκτης Ψυχρότητας Σημείο Δρόσου Υγρασία Ανεμος Precip. Elev Ενημερώθηκε Type